createdAt,value
2023-01-13T00:00:14.142Z,1.00
2023-01-13T00:01:16.997Z,1.33
2023-01-13T00:02:19.964Z,2.00
2023-01-13T00:03:22.978Z,1.14
2023-01-13T00:04:25.960Z,1.33
2023-01-13T00:05:28.773Z,1.67
2023-01-13T00:06:31.690Z,2.29
2023-01-13T00:07:34.668Z,2.17
2023-01-13T00:08:37.627Z,0.40
2023-01-13T00:09:40.523Z,1.00
2023-01-13T00:10:43.279Z,0.14
2023-01-13T00:11:46.267Z,0.33
2023-01-13T00:12:49.103Z,1.17
2023-01-13T00:14:00.440Z,0.33
2023-01-13T00:15:03.798Z,0.86
2023-01-13T00:16:07.268Z,1.00
2023-01-13T00:17:10.634Z,0.37
2023-01-13T00:18:14.008Z,0.86
2023-01-13T00:19:18.002Z,1.71
2023-01-13T00:20:21.692Z,2.12
2023-01-13T00:21:24.975Z,1.75
2023-01-13T00:22:28.369Z,1.00
2023-01-13T00:23:31.677Z,1.43
2023-01-13T00:24:35.124Z,0.83
2023-01-13T00:25:38.621Z,0.86
2023-01-13T00:26:42.106Z,1.57
2023-01-13T00:27:45.499Z,1.00
2023-01-13T00:28:48.977Z,1.00
2023-01-13T00:29:52.505Z,1.29
2023-01-13T00:30:55.486Z,2.00
2023-01-13T00:31:58.525Z,1.29
2023-01-13T00:33:01.611Z,1.57
2023-01-13T00:34:05.098Z,1.43
2023-01-13T00:35:08.610Z,1.29
2023-01-13T00:36:11.875Z,1.14
2023-01-13T00:37:15.672Z,1.00
2023-01-13T00:38:18.756Z,0.57
2023-01-13T00:39:22.434Z,1.00
2023-01-13T00:40:26.025Z,1.57
2023-01-13T00:41:29.616Z,2.00
2023-01-13T00:42:33.519Z,1.14
2023-01-13T00:43:36.915Z,0.50
2023-01-13T00:44:40.193Z,0.57
2023-01-13T00:45:43.549Z,1.00
2023-01-13T00:46:46.912Z,1.14
2023-01-13T00:47:50.244Z,0.57
2023-01-13T00:48:53.528Z,1.29
2023-01-13T00:49:57.662Z,2.14
2023-01-13T00:51:01.123Z,1.86
2023-01-13T00:52:04.506Z,2.57
2023-01-13T00:53:07.996Z,1.86
2023-01-13T00:54:11.299Z,1.86
2023-01-13T00:55:14.569Z,0.71
2023-01-13T00:56:19.979Z,1.43
2023-01-13T00:57:22.055Z,3.12
2023-01-13T00:58:25.547Z,3.71
2023-01-13T00:59:29.165Z,0.57
2023-01-13T01:00:32.612Z,0.43
2023-01-13T01:01:35.890Z,1.43
2023-01-13T01:02:39.135Z,0.57
2023-01-13T01:03:42.408Z,0.43
2023-01-13T01:04:45.342Z,1.00
2023-01-13T01:05:48.544Z,0.57
2023-01-13T01:06:52.433Z,1.29
2023-01-13T01:07:55.831Z,0.86
2023-01-13T01:08:58.904Z,1.29
2023-01-13T01:10:02.152Z,1.67
2023-01-13T01:11:05.395Z,0.33
2023-01-13T01:12:08.983Z,1.00
2023-01-13T01:13:12.152Z,0.71
2023-01-13T01:14:15.323Z,1.00
2023-01-13T01:15:18.621Z,1.00
2023-01-13T01:16:21.768Z,0.50
2023-01-13T01:17:25.074Z,0.33
2023-01-13T01:18:28.153Z,0.57
2023-01-13T01:19:31.447Z,0.43
2023-01-13T01:20:34.501Z,1.29
2023-01-13T01:21:37.522Z,1.43
2023-01-13T01:22:40.575Z,0.43
2023-01-13T01:23:43.858Z,1.86
2023-01-13T01:24:47.094Z,2.00
2023-01-13T01:25:50.327Z,0.00
2023-01-13T01:26:53.611Z,0.43
2023-01-13T01:27:56.999Z,1.00
2023-01-13T01:29:00.173Z,1.50
2023-01-13T01:30:03.368Z,1.33
2023-01-13T01:31:06.496Z,2.00
2023-01-13T01:32:09.619Z,1.71
2023-01-13T01:33:12.712Z,1.43
2023-01-13T01:34:15.886Z,1.71
2023-01-13T01:35:18.979Z,0.86
2023-01-13T01:36:22.755Z,2.00
2023-01-13T01:37:26.150Z,1.14
2023-01-13T01:38:29.222Z,1.43
2023-01-13T01:39:32.627Z,1.00
2023-01-13T01:40:35.790Z,0.29
2023-01-13T01:41:38.975Z,0.43
2023-01-13T01:42:42.153Z,1.00
2023-01-13T01:43:45.440Z,1.00
2023-01-13T01:44:50.525Z,1.00
2023-01-13T01:45:53.034Z,1.62
2023-01-13T01:46:56.166Z,2.00
2023-01-13T01:47:59.305Z,0.86
2023-01-13T01:49:02.383Z,0.86
2023-01-13T01:50:05.892Z,1.00
2023-01-13T01:51:08.922Z,1.43
2023-01-13T01:52:12.018Z,2.00
2023-01-13T01:53:15.231Z,1.43
2023-01-13T01:54:18.585Z,0.57
2023-01-13T01:55:22.383Z,0.00
2023-01-13T01:56:25.571Z,1.00
2023-01-13T01:57:28.639Z,1.67
2023-01-13T01:58:31.934Z,0.67
2023-01-13T01:59:35.009Z,0.00
2023-01-13T02:00:38.114Z,0.33
2023-01-13T02:01:41.513Z,1.00
2023-01-13T02:02:44.790Z,1.43
2023-01-13T02:03:48.264Z,0.14
2023-01-13T02:04:51.846Z,1.29
2023-01-13T02:05:55.229Z,2.29
2023-01-13T02:06:58.442Z,1.14
2023-01-13T02:08:01.629Z,1.17
2023-01-13T02:09:04.790Z,1.67
2023-01-13T02:10:07.981Z,1.33
2023-01-13T02:11:11.144Z,1.86
2023-01-13T02:12:14.124Z,1.67
2023-01-13T02:13:17.632Z,0.50
2023-01-13T02:14:20.589Z,1.00
2023-01-13T02:15:23.768Z,0.57
2023-01-13T02:16:26.975Z,0.43
2023-01-13T02:17:30.053Z,0.71
2023-01-13T02:18:32.999Z,1.57
2023-01-13T02:19:36.344Z,1.14
2023-01-13T02:20:39.376Z,1.00
2023-01-13T02:21:42.337Z,1.00
2023-01-13T02:22:45.519Z,0.43
2023-01-13T02:23:48.700Z,1.00
2023-01-13T02:24:51.988Z,1.43
2023-01-13T02:25:55.280Z,1.14
2023-01-13T02:26:58.658Z,0.00
2023-01-13T02:28:01.843Z,0.00
2023-01-13T02:29:04.919Z,0.00
2023-01-13T02:30:08.015Z,1.43
2023-01-13T02:31:11.289Z,1.50
2023-01-13T02:32:14.361Z,1.71
2023-01-13T02:33:17.575Z,0.00
2023-01-13T02:34:20.735Z,0.71
2023-01-13T02:35:24.107Z,0.57
2023-01-13T02:36:27.285Z,0.86
2023-01-13T02:37:30.602Z,1.57
2023-01-13T02:38:33.958Z,1.57
2023-01-13T02:39:37.453Z,1.43
2023-01-13T02:40:40.648Z,2.29
2023-01-13T02:41:44.021Z,2.14
2023-01-13T02:42:47.219Z,1.33
2023-01-13T02:43:50.291Z,2.00
2023-01-13T02:44:53.773Z,2.29
2023-01-13T02:45:56.967Z,1.43
2023-01-13T02:47:00.248Z,0.43
2023-01-13T02:48:04.339Z,1.00
2023-01-13T02:49:07.597Z,1.50
2023-01-13T02:50:10.811Z,1.17
2023-01-13T02:51:13.790Z,1.00
2023-01-13T02:52:17.072Z,0.67
2023-01-13T02:53:20.355Z,1.00
2023-01-13T02:54:23.442Z,0.57
2023-01-13T02:55:26.822Z,0.43
2023-01-13T02:56:30.012Z,0.57
2023-01-13T02:57:33.281Z,0.43
2023-01-13T02:58:36.267Z,1.00
2023-01-13T02:59:39.445Z,1.00
2023-01-13T03:00:42.444Z,0.14
2023-01-13T03:01:46.088Z,1.29
2023-01-13T03:02:49.495Z,1.00
2023-01-13T03:03:52.698Z,0.57
2023-01-13T03:04:55.662Z,0.14
2023-01-13T03:05:58.741Z,0.00
2023-01-13T03:07:01.829Z,0.86
2023-01-13T03:08:05.002Z,1.00
2023-01-13T03:09:08.504Z,0.86
2023-01-13T03:10:11.881Z,1.43
2023-01-13T03:11:15.176Z,2.00
2023-01-13T03:12:18.755Z,1.57
2023-01-13T03:13:22.132Z,1.57
2023-01-13T03:14:25.437Z,1.43
2023-01-13T03:15:28.406Z,1.50
2023-01-13T03:16:31.659Z,0.67
2023-01-13T03:17:34.870Z,0.67
2023-01-13T03:18:38.151Z,1.67
2023-01-13T03:19:41.349Z,1.00
2023-01-13T03:20:44.419Z,1.00
2023-01-13T03:21:47.515Z,0.71
2023-01-13T03:22:50.604Z,1.71
2023-01-13T03:23:53.757Z,2.14
2023-01-13T03:24:56.831Z,1.17
2023-01-13T03:26:00.047Z,1.00
2023-01-13T03:27:03.423Z,1.00
2023-01-13T03:28:06.517Z,0.86
2023-01-13T03:29:09.970Z,0.71
2023-01-13T03:30:13.372Z,1.00
2023-01-13T03:31:16.651Z,1.00
2023-01-13T03:32:19.820Z,0.83
2023-01-13T03:33:23.103Z,0.86
2023-01-13T03:34:26.186Z,0.57
2023-01-13T03:35:29.450Z,1.43
2023-01-13T03:36:35.523Z,1.57
2023-01-13T03:37:38.706Z,0.00
2023-01-13T03:38:41.680Z,0.00
2023-01-13T03:39:44.707Z,0.43
2023-01-13T03:40:47.734Z,0.43
2023-01-13T03:41:50.826Z,1.00
2023-01-13T03:42:54.017Z,1.00
2023-01-13T03:43:57.196Z,1.14
2023-01-13T03:45:00.256Z,0.71
2023-01-13T03:46:03.352Z,0.00
2023-01-13T03:47:06.619Z,0.67
2023-01-13T03:48:10.012Z,1.14
2023-01-13T03:49:13.297Z,0.71
2023-01-13T03:50:16.593Z,1.00
2023-01-13T03:51:19.790Z,0.57
2023-01-13T03:52:23.153Z,0.33
2023-01-13T03:53:26.339Z,1.00
2023-01-13T03:54:29.514Z,1.00
2023-01-13T03:55:32.811Z,0.71
2023-01-13T03:56:35.873Z,1.00
2023-01-13T03:57:39.103Z,1.43
2023-01-13T03:58:42.236Z,1.57
2023-01-13T03:59:45.238Z,1.57
2023-01-13T04:00:49.648Z,2.00
2023-01-13T04:01:53.013Z,0.50
2023-01-13T04:02:56.500Z,0.43
2023-01-13T04:03:59.962Z,1.00
2023-01-13T04:05:03.185Z,0.43
2023-01-13T04:06:06.631Z,0.57
2023-01-13T04:07:10.255Z,0.43
2023-01-13T04:08:13.343Z,0.43
2023-01-13T04:09:16.591Z,1.00
2023-01-13T04:10:19.937Z,0.67
2023-01-13T04:11:23.193Z,0.00
2023-01-13T04:12:26.348Z,0.00
2023-01-13T04:13:29.352Z,0.14
2023-01-13T04:14:32.538Z,0.43
2023-01-13T04:15:35.562Z,0.86
2023-01-13T04:16:38.578Z,0.86
2023-01-13T04:17:41.800Z,1.33
2023-01-13T04:18:45.044Z,2.00
2023-01-13T04:19:48.087Z,1.00
2023-01-13T04:20:51.018Z,1.00
2023-01-13T04:21:54.081Z,1.00
2023-01-13T04:22:57.167Z,1.33
2023-01-13T04:24:00.253Z,1.50
2023-01-13T04:25:03.349Z,0.67
2023-01-13T04:26:06.495Z,0.00
2023-01-13T04:27:09.731Z,0.00
2023-01-13T04:28:12.748Z,0.33
2023-01-13T04:29:15.978Z,1.00
2023-01-13T04:30:19.030Z,0.57
2023-01-13T04:31:22.273Z,0.33
2023-01-13T04:32:25.282Z,1.00
2023-01-13T04:33:28.488Z,0.67
2023-01-13T04:34:31.408Z,0.00
2023-01-13T04:35:34.626Z,0.50
2023-01-13T04:36:37.719Z,0.71
2023-01-13T04:37:40.840Z,0.00
2023-01-13T04:38:43.967Z,0.43
2023-01-13T04:39:47.043Z,0.71
2023-01-13T04:40:50.039Z,1.00
2023-01-13T04:41:53.290Z,0.29
2023-01-13T04:42:56.399Z,1.86
2023-01-13T04:43:59.494Z,1.14
2023-01-13T04:45:02.432Z,0.43
2023-01-13T04:46:05.552Z,1.29
2023-01-13T04:47:08.704Z,0.57
2023-01-13T04:48:11.934Z,0.14
2023-01-13T04:49:15.095Z,1.00
2023-01-13T04:50:18.163Z,1.00
2023-01-13T04:51:21.258Z,1.00
2023-01-13T04:52:24.227Z,1.00
2023-01-13T04:53:27.387Z,0.00
2023-01-13T04:54:30.592Z,0.00
2023-01-13T04:55:33.554Z,0.00
2023-01-13T04:56:36.841Z,0.29
2023-01-13T04:57:39.823Z,1.00
2023-01-13T04:58:42.886Z,0.57
2023-01-13T04:59:46.082Z,0.57
2023-01-13T05:00:49.079Z,1.00
2023-01-13T05:01:52.221Z,1.00
2023-01-13T05:02:55.344Z,1.00
2023-01-13T05:03:58.287Z,0.83
2023-01-13T05:05:01.544Z,1.67
2023-01-13T05:06:04.572Z,1.33
2023-01-13T05:07:07.632Z,1.67
2023-01-13T05:08:11.217Z,0.86
2023-01-13T05:09:14.192Z,2.29
2023-01-13T05:10:17.277Z,1.33
2023-01-13T05:11:20.361Z,1.00
2023-01-13T05:12:23.445Z,1.43
2023-01-13T05:13:26.482Z,2.43
2023-01-13T05:14:29.629Z,2.14
2023-01-13T05:15:33.251Z,1.43
2023-01-13T05:16:36.565Z,1.43
2023-01-13T05:17:39.810Z,1.71
2023-01-13T05:18:43.136Z,2.67
2023-01-13T05:19:46.492Z,1.43
2023-01-13T05:20:49.634Z,0.57
2023-01-13T05:21:52.790Z,0.86
2023-01-13T05:22:56.079Z,1.14
2023-01-13T05:23:59.263Z,0.43
2023-01-13T05:25:02.649Z,1.43
2023-01-13T05:26:06.042Z,0.71
2023-01-13T05:27:09.307Z,0.71
2023-01-13T05:28:12.500Z,0.86
2023-01-13T05:29:15.777Z,0.67
2023-01-13T05:30:19.273Z,0.14
2023-01-13T05:31:22.850Z,0.43
2023-01-13T05:32:25.857Z,0.57
2023-01-13T05:33:29.126Z,0.00
2023-01-13T05:34:32.527Z,1.00
2023-01-13T05:35:35.695Z,1.00
2023-01-13T05:36:38.678Z,0.57
2023-01-13T05:37:41.744Z,0.83
2023-01-13T05:38:45.140Z,0.67
2023-01-13T05:39:48.417Z,0.00
2023-01-13T05:40:51.807Z,1.00
2023-01-13T05:41:55.083Z,1.14
2023-01-13T05:42:58.379Z,0.57
2023-01-13T05:44:01.561Z,0.67
2023-01-13T05:45:04.729Z,1.00
2023-01-13T05:46:07.928Z,0.83
2023-01-13T05:47:11.215Z,2.00
2023-01-13T05:48:14.586Z,1.57
2023-01-13T05:49:17.907Z,1.14
2023-01-13T05:50:20.846Z,1.00
2023-01-13T05:51:23.923Z,1.00
2023-01-13T05:52:27.006Z,0.86
2023-01-13T05:53:30.172Z,1.29
2023-01-13T05:54:33.386Z,1.14
2023-01-13T05:55:36.773Z,1.71
2023-01-13T05:56:40.256Z,2.14
2023-01-13T05:57:43.424Z,1.43
2023-01-13T05:58:46.718Z,1.67
2023-01-13T05:59:49.992Z,0.86
2023-01-13T06:00:53.150Z,1.43
2023-01-13T06:01:56.260Z,2.00
2023-01-13T06:02:59.465Z,1.57
2023-01-13T06:04:02.959Z,1.00
2023-01-13T06:05:06.018Z,1.00
2023-01-13T06:06:09.337Z,1.43
2023-01-13T06:07:12.592Z,1.71
2023-01-13T06:08:15.731Z,1.57
2023-01-13T06:09:18.835Z,1.29
2023-01-13T06:10:22.258Z,0.57
2023-01-13T06:11:25.727Z,0.86
2023-01-13T06:12:29.113Z,1.86
2023-01-13T06:13:32.401Z,1.57
2023-01-13T06:14:37.185Z,1.43
2023-01-13T06:15:40.190Z,0.88
2023-01-13T06:16:43.555Z,0.57
2023-01-13T06:17:46.574Z,1.00
2023-01-13T06:18:49.652Z,1.14
2023-01-13T06:19:52.908Z,1.00
2023-01-13T06:20:56.145Z,0.57
2023-01-13T06:21:59.166Z,0.57
2023-01-13T06:23:02.461Z,1.67
2023-01-13T06:24:05.570Z,1.71
2023-01-13T06:25:08.740Z,2.00
2023-01-13T06:26:12.099Z,1.17
2023-01-13T06:27:15.184Z,2.29
2023-01-13T06:28:18.476Z,1.43
2023-01-13T06:29:21.609Z,0.43
2023-01-13T06:30:24.636Z,0.57
2023-01-13T06:31:27.840Z,0.33
2023-01-13T06:32:30.814Z,1.00
2023-01-13T06:33:33.863Z,1.83
2023-01-13T06:34:37.259Z,1.29
2023-01-13T06:35:40.242Z,2.00
2023-01-13T06:36:43.629Z,1.57
2023-01-13T06:37:46.715Z,1.43
2023-01-13T06:38:50.089Z,2.00
2023-01-13T06:39:53.475Z,1.43
2023-01-13T06:40:56.763Z,2.00
2023-01-13T06:41:59.938Z,2.00
2023-01-13T06:43:03.003Z,0.71
2023-01-13T06:44:06.445Z,0.00
2023-01-13T06:45:09.795Z,1.43
2023-01-13T06:46:13.071Z,1.57
2023-01-13T06:47:16.255Z,1.43
2023-01-13T06:48:19.466Z,1.14
2023-01-13T06:49:22.510Z,1.29
2023-01-13T06:50:25.632Z,2.14
2023-01-13T06:51:28.675Z,0.57
2023-01-13T06:52:31.767Z,1.00
2023-01-13T06:53:34.875Z,0.57
2023-01-13T06:54:37.915Z,0.33
2023-01-13T06:55:40.868Z,2.17
2023-01-13T06:56:43.970Z,2.00
2023-01-13T06:57:47.050Z,1.71
2023-01-13T06:58:50.352Z,1.00
2023-01-13T06:59:53.337Z,1.00
2023-01-13T07:00:56.698Z,1.43
2023-01-13T07:01:59.891Z,2.14
2023-01-13T07:03:04.400Z,1.43
2023-01-13T07:04:07.274Z,1.00
2023-01-13T07:05:10.445Z,1.14
2023-01-13T07:06:13.388Z,1.29
2023-01-13T07:07:16.508Z,0.57
2023-01-13T07:08:19.599Z,0.00
2023-01-13T07:09:22.775Z,0.17
2023-01-13T07:10:25.822Z,0.43
2023-01-13T07:11:29.549Z,2.17
2023-01-13T07:12:32.715Z,2.50
2023-01-13T07:13:36.108Z,2.29
2023-01-13T07:14:39.377Z,2.43
2023-01-13T07:15:42.802Z,1.86
2023-01-13T07:16:45.934Z,1.29
2023-01-13T07:17:49.045Z,1.33
2023-01-13T07:18:52.128Z,1.71
2023-01-13T07:19:55.517Z,1.43
2023-01-13T07:20:58.902Z,0.57
2023-01-13T07:22:02.382Z,0.43
2023-01-13T07:23:05.867Z,0.57
2023-01-13T07:24:08.817Z,0.86
2023-01-13T07:25:11.970Z,1.57
2023-01-13T07:26:15.116Z,0.71
2023-01-13T07:27:18.620Z,0.29
2023-01-13T07:28:21.803Z,1.14
2023-01-13T07:29:25.065Z,2.57
2023-01-13T07:30:28.172Z,1.67
2023-01-13T07:31:31.224Z,1.67
2023-01-13T07:32:34.205Z,2.14
2023-01-13T07:33:37.277Z,0.86
2023-01-13T07:34:40.360Z,0.43
2023-01-13T07:35:43.653Z,1.33
2023-01-13T07:36:46.716Z,1.67
2023-01-13T07:37:49.920Z,0.50
2023-01-13T07:38:54.733Z,1.00
2023-01-13T07:39:57.306Z,2.00
2023-01-13T07:41:00.405Z,2.67
2023-01-13T07:42:03.571Z,2.00
2023-01-13T07:43:06.650Z,2.00
2023-01-13T07:44:09.614Z,1.00
2023-01-13T07:45:12.686Z,1.43
2023-01-13T07:46:15.941Z,2.29
2023-01-13T07:47:18.962Z,2.14
2023-01-13T07:48:22.072Z,1.00
2023-01-13T07:49:25.113Z,1.00
2023-01-13T07:50:28.312Z,2.33
2023-01-13T07:51:31.608Z,2.67
2023-01-13T07:52:34.773Z,2.00
2023-01-13T07:53:37.761Z,1.83
2023-01-13T07:54:41.381Z,1.43
2023-01-13T07:55:44.638Z,3.25
2023-01-13T07:56:47.687Z,3.86
2023-01-13T07:57:50.739Z,3.67
2023-01-13T07:58:53.956Z,2.67
2023-01-13T07:59:57.134Z,3.43
2023-01-13T08:01:00.642Z,2.14
2023-01-13T08:02:04.064Z,1.25
2023-01-13T08:03:08.050Z,3.00
2023-01-13T08:04:11.671Z,4.00
2023-01-13T08:05:15.246Z,3.00
2023-01-13T08:06:18.205Z,2.14
2023-01-13T08:07:21.567Z,1.00
2023-01-13T08:08:24.840Z,1.33
2023-01-13T08:09:27.929Z,2.00
2023-01-13T08:10:31.229Z,3.00
2023-01-13T08:11:34.368Z,2.14
2023-01-13T08:12:37.365Z,1.50
2023-01-13T08:13:40.551Z,1.00
2023-01-13T08:14:43.833Z,1.43
2023-01-13T08:15:47.034Z,1.57
2023-01-13T08:16:50.770Z,1.43
2023-01-13T08:17:53.793Z,2.00
2023-01-13T08:18:57.154Z,1.50
2023-01-13T08:20:00.257Z,1.00
2023-01-13T08:21:03.503Z,1.00
2023-01-13T08:22:06.514Z,2.17
2023-01-13T08:23:09.668Z,3.00
2023-01-13T08:24:12.974Z,2.67
2023-01-13T08:25:16.288Z,2.00
2023-01-13T08:26:19.466Z,1.83
2023-01-13T08:27:22.829Z,1.57
2023-01-13T08:28:25.809Z,1.33
2023-01-13T08:29:28.895Z,2.00
2023-01-13T08:30:32.164Z,1.00
2023-01-13T08:31:35.564Z,2.17
2023-01-13T08:32:38.887Z,5.14
2023-01-13T08:33:41.845Z,3.43
2023-01-13T08:34:44.907Z,2.57
2023-01-13T08:35:48.286Z,2.17
2023-01-13T08:36:51.572Z,4.71
2023-01-13T08:37:54.859Z,4.43
2023-01-13T08:38:58.033Z,2.57
2023-01-13T08:40:01.236Z,1.29
2023-01-13T08:41:04.592Z,2.00
2023-01-13T08:42:07.692Z,2.71
2023-01-13T08:43:11.366Z,2.57
2023-01-13T08:44:14.967Z,0.75
2023-01-13T08:45:18.445Z,1.43
2023-01-13T08:46:21.722Z,2.86
2023-01-13T08:47:24.940Z,3.86
2023-01-13T08:48:29.765Z,3.00
2023-01-13T08:49:32.632Z,2.50
2023-01-13T08:50:35.877Z,2.00
2023-01-13T08:51:39.342Z,2.43
2023-01-13T08:52:42.573Z,1.71
2023-01-13T08:53:45.668Z,1.43
2023-01-13T08:54:48.955Z,1.57
2023-01-13T08:55:52.027Z,1.43
2023-01-13T08:56:55.446Z,3.86
2023-01-13T08:58:14.160Z,2.86
2023-01-13T08:59:03.326Z,2.00
2023-01-13T09:00:06.704Z,2.43
2023-01-13T09:01:10.197Z,4.29
2023-01-13T09:02:13.681Z,4.86
2023-01-13T09:03:17.594Z,3.00
2023-01-13T09:04:21.009Z,3.00
2023-01-13T09:05:24.357Z,3.00
2023-01-13T09:06:27.606Z,2.86
2023-01-13T09:07:31.015Z,3.00
2023-01-13T09:08:34.213Z,3.14
2023-01-13T09:09:37.520Z,1.86
2023-01-13T09:10:40.690Z,2.00
2023-01-13T09:11:43.988Z,2.00
2023-01-13T09:12:49.280Z,4.00
2023-01-13T09:13:52.686Z,3.50
2023-01-13T09:14:56.193Z,3.86
2023-01-13T09:15:59.688Z,3.86
2023-01-13T09:17:03.532Z,3.00
2023-01-13T09:18:07.022Z,2.75
2023-01-13T09:19:10.708Z,2.71
2023-01-13T09:20:14.391Z,1.86
2023-01-13T09:21:17.912Z,3.00
2023-01-13T09:22:21.114Z,2.43
2023-01-13T09:23:24.978Z,3.33
2023-01-13T09:24:28.742Z,2.29
2023-01-13T09:25:32.570Z,1.12
2023-01-13T09:26:36.491Z,1.00
2023-01-13T09:27:40.178Z,1.43
2023-01-13T09:28:43.851Z,2.00
2023-01-13T09:29:47.455Z,2.00
2023-01-13T09:30:51.030Z,2.00
2023-01-13T09:31:54.547Z,2.43
2023-01-13T09:32:58.191Z,1.71
2023-01-13T09:34:02.217Z,2.43
2023-01-13T09:35:05.704Z,3.00
2023-01-13T09:36:09.114Z,2.43
2023-01-13T09:37:13.026Z,1.14
2023-01-13T09:38:16.913Z,1.37
2023-01-13T09:39:20.789Z,1.71
2023-01-13T09:40:24.489Z,1.43
2023-01-13T09:41:27.904Z,2.12
2023-01-13T09:42:31.666Z,1.57
2023-01-13T09:43:35.471Z,3.00
2023-01-13T09:44:39.477Z,3.29
2023-01-13T09:45:42.984Z,3.00
2023-01-13T09:46:46.245Z,2.14
2023-01-13T09:47:49.906Z,1.43
2023-01-13T09:48:53.545Z,2.00
2023-01-13T09:49:57.335Z,2.14
2023-01-13T09:51:01.011Z,1.43
2023-01-13T09:52:04.540Z,1.62
2023-01-13T09:53:08.118Z,2.00
2023-01-13T09:54:11.570Z,2.43
2023-01-13T09:55:15.406Z,1.57
2023-01-13T09:56:18.996Z,1.43
2023-01-13T09:57:22.471Z,2.50
2023-01-13T09:58:26.149Z,1.29
2023-01-13T09:59:29.160Z,2.50
2023-01-13T10:00:32.923Z,2.67
2023-01-13T10:01:36.209Z,3.12
2023-01-13T10:02:40.318Z,3.43
2023-01-13T10:03:43.835Z,1.50
2023-01-13T10:04:47.510Z,1.57
2023-01-13T10:05:51.029Z,1.00
2023-01-13T10:06:54.466Z,1.43
2023-01-13T10:07:57.758Z,2.71
2023-01-13T10:09:03.852Z,2.43
2023-01-13T10:10:09.332Z,2.75
2023-01-13T10:11:11.633Z,1.62
2023-01-13T10:12:14.707Z,3.33
2023-01-13T10:13:17.873Z,3.57
2023-01-13T10:14:21.075Z,3.43
2023-01-13T10:15:24.244Z,2.71
2023-01-13T10:16:27.282Z,1.43
2023-01-13T10:17:30.431Z,2.43
2023-01-13T10:18:33.443Z,2.17
2023-01-13T10:19:36.482Z,2.00
2023-01-13T10:20:39.612Z,2.67
2023-01-13T10:21:42.762Z,2.00
2023-01-13T10:22:45.717Z,3.00
2023-01-13T10:23:48.771Z,2.67
2023-01-13T10:24:51.876Z,1.83
2023-01-13T10:25:54.969Z,1.67
2023-01-13T10:26:57.953Z,1.67
2023-01-13T10:28:00.972Z,2.29
2023-01-13T10:29:03.884Z,2.00
2023-01-13T10:30:07.090Z,1.83
2023-01-13T10:31:10.500Z,2.86
2023-01-13T10:32:14.213Z,3.29
2023-01-13T10:33:17.754Z,2.29
2023-01-13T10:34:20.938Z,1.57
2023-01-13T10:35:24.178Z,1.43
2023-01-13T10:36:27.932Z,2.14
2023-01-13T10:37:31.620Z,2.29
2023-01-13T10:38:35.147Z,1.43
2023-01-13T10:39:38.745Z,1.12
2023-01-13T10:40:42.230Z,2.14
2023-01-13T10:41:45.722Z,4.86
2023-01-13T10:42:49.148Z,5.29
2023-01-13T10:43:52.606Z,2.57
2023-01-13T10:44:56.096Z,2.17
2023-01-13T10:45:59.692Z,1.57
2023-01-13T10:47:03.266Z,2.00
2023-01-13T10:48:06.538Z,3.87
2023-01-13T10:49:09.800Z,3.00
2023-01-13T10:50:13.421Z,3.57
2023-01-13T10:51:17.029Z,2.14
2023-01-13T10:52:20.538Z,2.50
2023-01-13T10:53:24.006Z,3.00
2023-01-13T10:54:27.200Z,2.71
2023-01-13T10:55:30.709Z,1.14
2023-01-13T10:56:34.474Z,2.50
2023-01-13T10:57:37.855Z,2.14
2023-01-13T10:58:41.363Z,1.71
2023-01-13T10:59:45.038Z,2.50
2023-01-13T11:00:48.636Z,2.43
2023-01-13T11:01:53.846Z,3.00
2023-01-13T11:02:56.936Z,2.12
2023-01-13T11:04:00.284Z,2.75
2023-01-13T11:05:03.852Z,3.14
2023-01-13T11:06:07.511Z,2.00
2023-01-13T11:07:11.039Z,2.37
2023-01-13T11:08:14.802Z,2.29
2023-01-13T11:09:18.539Z,2.12
2023-01-13T11:10:22.177Z,3.43
2023-01-13T11:11:25.612Z,3.14
2023-01-13T11:12:28.664Z,1.57
2023-01-13T11:13:31.740Z,1.00
2023-01-13T11:14:35.116Z,1.00
2023-01-13T11:15:38.606Z,2.14
2023-01-13T11:16:52.781Z,3.14
2023-01-13T11:17:46.406Z,2.00
2023-01-13T11:18:49.702Z,2.67
2023-01-13T11:19:53.293Z,2.00
2023-01-13T11:22:14.814Z,1.00
2023-01-13T11:23:18.108Z,1.29
2023-01-13T11:24:21.344Z,0.86
2023-01-13T11:25:25.068Z,1.00
2023-01-13T11:26:28.748Z,1.29
2023-01-13T11:27:32.131Z,3.00
2023-01-13T11:28:35.556Z,3.00
2023-01-13T11:29:39.425Z,2.29
2023-01-13T11:30:42.917Z,3.71
2023-01-13T11:31:46.270Z,3.86
2023-01-13T11:32:49.677Z,3.43
2023-01-13T11:33:53.168Z,2.00
2023-01-13T11:34:56.552Z,2.86
2023-01-13T11:36:00.249Z,1.57
2023-01-13T11:37:03.954Z,2.00
2023-01-13T11:38:07.420Z,1.86
2023-01-13T11:39:11.132Z,1.62
2023-01-13T11:40:14.827Z,1.57
2023-01-13T11:41:18.721Z,0.75
2023-01-13T11:42:22.322Z,1.43
2023-01-13T11:43:25.929Z,2.43
2023-01-13T11:44:29.192Z,2.14
2023-01-13T11:45:32.984Z,1.00
2023-01-13T11:46:36.681Z,1.86
2023-01-13T11:47:40.050Z,3.00
2023-01-13T11:48:43.657Z,3.00
2023-01-13T11:49:47.349Z,2.00
2023-01-13T11:50:50.738Z,2.50
2023-01-13T11:51:54.428Z,3.43
2023-01-13T11:52:57.784Z,2.29
2023-01-13T11:54:04.174Z,1.00
2023-01-13T11:55:07.468Z,2.00
2023-01-13T11:56:10.883Z,1.71
2023-01-13T11:57:14.157Z,2.43
2023-01-13T11:58:17.310Z,2.83
2023-01-13T11:59:20.703Z,3.67
2023-01-13T12:00:23.991Z,2.14
2023-01-13T12:01:27.590Z,3.14
2023-01-13T12:02:33.724Z,2.43
2023-01-13T12:03:36.954Z,1.87
2023-01-13T12:04:40.177Z,2.17
2023-01-13T12:05:43.472Z,3.00
2023-01-13T12:06:48.394Z,4.33
2023-01-13T12:07:51.641Z,3.25
2023-01-13T12:08:55.069Z,3.33
2023-01-13T12:09:58.557Z,3.00
2023-01-13T12:11:02.048Z,2.86
2023-01-13T12:12:05.334Z,2.00
2023-01-13T12:13:08.948Z,3.00
2023-01-13T12:14:12.128Z,2.43
2023-01-13T12:15:15.413Z,2.14
2023-01-13T12:16:18.877Z,2.86
2023-01-13T12:17:22.055Z,2.57
2023-01-13T12:18:25.570Z,1.14
2023-01-13T12:19:29.005Z,1.57
2023-01-13T12:20:32.418Z,1.50
2023-01-13T12:21:35.626Z,2.86
2023-01-13T12:22:39.091Z,2.43
2023-01-13T12:23:42.480Z,1.00
2023-01-13T12:24:45.903Z,1.00
2023-01-13T12:25:49.362Z,2.14
2023-01-13T12:26:52.759Z,1.57
2023-01-13T12:27:55.874Z,1.57
2023-01-13T12:28:59.030Z,3.00
2023-01-13T12:30:02.388Z,3.33
2023-01-13T12:31:05.737Z,3.14
2023-01-13T12:32:08.958Z,2.57
2023-01-13T12:33:12.339Z,2.14
2023-01-13T12:34:15.936Z,1.43
2023-01-13T12:35:19.435Z,3.00
2023-01-13T12:36:23.011Z,2.71
2023-01-13T12:37:26.476Z,2.14
2023-01-13T12:38:29.911Z,2.57
2023-01-13T12:39:34.828Z,3.50
2023-01-13T12:40:38.218Z,3.00
2023-01-13T12:41:41.632Z,1.71
2023-01-13T12:42:45.056Z,2.00
2023-01-13T12:43:48.583Z,2.00
2023-01-13T12:44:52.168Z,2.50
2023-01-13T12:45:55.503Z,2.14
2023-01-13T12:46:59.719Z,2.29
2023-01-13T12:48:02.984Z,2.75
2023-01-13T12:49:06.326Z,1.43
2023-01-13T12:57:20.335Z,6.00
2023-01-13T12:58:23.600Z,1.14
2023-01-13T12:59:26.970Z,3.00
2023-01-13T13:00:30.585Z,2.14
2023-01-13T13:01:33.969Z,2.00
2023-01-13T13:02:37.576Z,2.43
2023-01-13T13:03:41.158Z,1.57
2023-01-13T13:04:44.223Z,2.57
2023-01-13T13:05:47.497Z,2.67
2023-01-13T13:06:50.974Z,2.43
2023-01-13T13:07:54.579Z,2.87
2023-01-13T13:08:58.230Z,1.71
2023-01-13T13:10:01.775Z,1.86
2023-01-13T13:11:05.362Z,3.71
2023-01-13T13:12:08.745Z,1.43
2023-01-13T13:13:12.340Z,2.43
2023-01-13T13:14:15.943Z,2.14
2023-01-13T13:15:19.652Z,2.29
2023-01-13T13:16:23.034Z,2.50
2023-01-13T13:17:26.511Z,2.43
2023-01-13T13:18:29.894Z,3.86
2023-01-13T13:19:33.589Z,4.43
2023-01-13T13:20:36.958Z,4.71
2023-01-13T13:21:40.657Z,2.86
2023-01-13T13:22:44.249Z,1.87
2023-01-13T13:23:48.128Z,2.71
2023-01-13T13:24:51.954Z,4.12
2023-01-13T13:25:55.836Z,3.25
2023-01-13T13:26:59.031Z,2.00
2023-01-13T13:28:02.428Z,2.43
2023-01-13T13:29:05.793Z,2.57
2023-01-13T13:30:09.307Z,2.29
2023-01-13T13:31:13.071Z,2.29
2023-01-13T13:32:16.575Z,1.86
2023-01-13T13:33:20.159Z,2.00
2023-01-13T13:34:23.956Z,3.00
2023-01-13T13:35:27.448Z,2.71
2023-01-13T13:36:31.118Z,1.71
2023-01-13T13:37:34.633Z,1.57
2023-01-13T13:38:38.186Z,1.43
2023-01-13T13:39:41.705Z,2.00
2023-01-13T13:40:45.198Z,2.00
2023-01-13T13:41:48.486Z,2.29
2023-01-13T13:42:51.990Z,3.43
2023-01-13T13:43:55.662Z,3.00
2023-01-13T13:44:58.758Z,3.00
2023-01-13T13:46:02.320Z,2.14
2023-01-13T13:47:05.591Z,2.71
2023-01-13T13:48:09.212Z,2.86
2023-01-13T13:49:12.919Z,2.50
2023-01-13T13:50:16.391Z,3.00
2023-01-13T13:51:19.681Z,1.57
2023-01-13T13:52:22.727Z,1.33
2023-01-13T13:53:26.267Z,2.00
2023-01-13T13:54:29.748Z,1.62
2023-01-13T13:55:33.233Z,1.57
2023-01-13T13:56:36.711Z,2.14
2023-01-13T13:57:40.203Z,3.71
2023-01-13T13:58:43.486Z,1.57
2023-01-13T13:59:47.153Z,1.29
2023-01-13T14:00:51.213Z,1.86
2023-01-13T14:01:54.661Z,3.43
2023-01-13T14:02:58.381Z,3.57
2023-01-13T14:04:01.648Z,3.43
2023-01-13T14:05:05.220Z,3.57
2023-01-13T14:06:08.363Z,2.43
2023-01-13T14:07:11.825Z,2.00
2023-01-13T14:08:15.571Z,2.00
2023-01-13T14:09:19.200Z,2.43
2023-01-13T14:10:22.927Z,3.12
2023-01-13T14:11:26.544Z,3.00